PDT,Max TemperatureF,Mean TemperatureF,Min TemperatureF,Max Dew PointF,MeanDew PointF,Min DewpointF,Max Humidity, Mean Humidity, Min Humidity, Max Sea Level PressureIn, Mean Sea Level PressureIn, Min Sea Level PressureIn, Max VisibilityMiles, Mean VisibilityMiles, Min VisibilityMiles, Max Wind SpeedMPH, Mean Wind SpeedMPH, Max Gust SpeedMPH,PrecipitationIn, CloudCover, Events, WindDirDegrees
2012-10-1,106,88,72,41,33,30,22,15,8,29.91,29.83,29.76,10,10,10,8,4,,0.00,0,,276
2012-10-2,105,86,69,41,35,30,26,16,10,29.84,29.76,29.70,10,10,10,8,3,,0.00,0,,189
2012-10-3,106,88,70,44,37,28,29,18,7,29.86,29.80,29.75,10,10,10,17,6,26,0.00,0,,198
2012-10-4,99,86,73,48,41,32,36,23,10,29.96,29.89,29.84,10,10,10,13,6,25,0.00,0,,183
2012-10-5,95,80,66,47,39,32,43,24,11,29.95,29.86,29.80,10,10,10,8,4,,0.00,0,,197
2012-10-6,93,78,63,44,38,32,32,22,14,29.87,29.80,29.73,10,10,10,6,2,,0.00,0,,219
2012-10-7,95,80,68,47,41,36,35,25,15,29.85,29.78,29.73,10,10,10,9,4,,0.00,0,,127
2012-10-8,95,80,66,64,50,39,56,35,20,29.88,29.81,29.75,10,10,10,14,5,,0.00,0,,195
2012-10-9,93,80,66,63,59,46,76,47,29,29.88,29.82,29.75,10,10,10,16,7,21,0.00,0,Thunderstorm,181
2012-10-10,91,80,71,66,57,39,73,46,25,29.88,29.80,29.72,10,10,10,17,8,20,0.00,1,Rain-Thunderstorm,179
2012-10-11,82,72,62,61,51,36,88,54,20,29.86,29.79,29.74,10,10,6,17,6,26,0.13,3,Rain-Thunderstorm,184
2012-10-12,78,68,57,55,48,39,93,56,25,30.05,29.97,29.86,10,10,4,17,8,24,0.11,1,Rain,243
2012-10-13,84,70,57,52,48,42,75,47,24,30.16,30.08,30.01,10,10,10,10,4,,0.00,0,,346
2012-10-14,93,76,61,53,46,41,58,36,17,30.08,29.99,29.91,10,10,10,12,3,,0.00,0,,1
2012-10-15,93,78,64,48,43,39,42,29,17,29.94,29.86,29.79,10,10,10,7,3,,0.00,0,,245
2012-10-16,95,78,62,45,42,38,46,29,14,29.85,29.77,29.68,10,10,10,8,2,,0.00,0,,73
2012-10-17,93,78,62,49,42,39,47,30,17,29.88,29.80,29.73,10,10,10,8,3,,0.00,0,,53
2012-10-18,93,78,64,58,42,33,45,30,16,30.00,29.93,29.88,10,10,10,9,4,,0.00,0,,9
2012-10-19,91,75,59,41,32,26,33,23,11,29.94,29.84,29.76,10,10,10,8,4,,0.00,0,,360
2012-10-20,95,76,57,52,39,30,38,29,15,29.78,29.72,29.64,10,10,10,14,5,,0.00,0,,242
2012-10-21,87,77,68,54,50,47,56,40,26,29.77,29.73,29.68,10,10,10,15,9,23,0.00,0,,199
2012-10-22,87,76,64,54,47,34,65,42,16,29.88,29.81,29.76,10,10,10,14,10,21,0.00,0,,190
2012-10-23,82,69,57,50,42,31,67,37,16,29.88,29.81,29.76,10,10,10,16,7,22,0.00,0,,213
2012-10-24,81,68,57,47,33,23,56,29,13,29.95,29.89,29.81,10,10,10,16,6,17,0.00,0,,304
2012-10-25,82,68,55,29,24,20,33,20,10,30.06,29.99,29.93,10,10,10,15,7,,0.00,0,,344
2012-10-26,79,71,63,23,16,7,21,13,8,30.14,30.02,29.94,10,10,10,25,17,31,0.00,0,,348
2012-10-27,86,68,52,18,12,5,20,12,6,30.00,29.93,29.85,10,10,10,13,5,,0.00,0,,331
2012-10-28,89,72,55,36,21,15,23,16,8,29.99,29.93,29.89,10,10,9,7,4,,0.00,0,,289
2012-10-29,89,70,52,33,24,19,41,21,10,30.07,30.00,29.96,10,10,10,8,3,,0.00,0,,301
2012-10-30,89,70,51,32,24,19,31,20,10,30.04,29.97,29.89,10,10,10,8,4,,0.00,0,,324
2012-10-31,87,70,54,34,26,20,30,22,12,29.99,29.92,29.86,10,10,10,7,4,,0.00,0,,1